createdAt,value
2019-01-09T00:06:59.000Z,16.5
2019-01-09T00:16:58.000Z,16.6
2019-01-09T00:26:58.000Z,16.6
2019-01-09T00:36:58.000Z,16.6
2019-01-09T00:56:58.000Z,16.5
2019-01-09T01:06:58.000Z,16.4
2019-01-09T01:26:58.000Z,16.3
2019-01-09T01:36:58.000Z,16
2019-01-09T01:56:58.000Z,16.2
2019-01-09T02:06:58.000Z,16.3
2019-01-09T02:16:58.000Z,16
2019-01-09T02:26:58.000Z,16.1
2019-01-09T02:36:58.000Z,16
2019-01-09T02:46:58.000Z,15.9
2019-01-09T02:56:58.000Z,15.7
2019-01-09T03:06:58.000Z,15.8
2019-01-09T03:16:58.000Z,15.7
2019-01-09T03:26:58.000Z,15.8
2019-01-09T03:36:58.000Z,15.8
2019-01-09T03:46:58.000Z,15.5
2019-01-09T03:56:58.000Z,15.7
2019-01-09T04:06:58.000Z,15.6
2019-01-09T04:16:59.000Z,15.6
2019-01-09T04:26:59.000Z,15.5
2019-01-09T04:36:59.000Z,15.5
2019-01-09T04:46:59.000Z,15.2
2019-01-09T04:56:59.000Z,15.3
2019-01-09T05:06:59.000Z,15.2
2019-01-09T05:16:59.000Z,15
2019-01-09T05:26:59.000Z,15.2
2019-01-09T05:36:59.000Z,15.3
2019-01-09T05:47:00.000Z,15.2
2019-01-09T05:56:59.000Z,15.2
2019-01-09T06:06:59.000Z,15
2019-01-09T06:16:59.000Z,15.3
2019-01-09T06:26:59.000Z,15.3
2019-01-09T06:37:01.000Z,16.8
2019-01-09T06:47:01.000Z,17.9
2019-01-09T06:56:59.000Z,18.3
2019-01-09T07:06:59.000Z,18.5
2019-01-09T07:16:59.000Z,18.6
2019-01-09T07:26:59.000Z,18.9
2019-01-09T07:36:59.000Z,18.7
2019-01-09T07:46:59.000Z,19.1
2019-01-09T07:56:59.000Z,19.1
2019-01-09T08:06:59.000Z,19
2019-01-09T08:16:59.000Z,19.3
2019-01-09T08:26:59.000Z,19.3
2019-01-09T08:36:59.000Z,19.4
2019-01-09T08:47:02.000Z,19.4
2019-01-09T08:56:59.000Z,19.4
2019-01-09T09:06:59.000Z,19.4
2019-01-09T09:16:59.000Z,19.5
2019-01-09T09:26:59.000Z,19.5
2019-01-09T09:36:59.000Z,19.6
2019-01-09T09:46:59.000Z,19.5
2019-01-09T09:56:59.000Z,19.5
2019-01-09T10:06:59.000Z,19.6
2019-01-09T10:16:59.000Z,19.6
2019-01-09T10:26:59.000Z,19.6
2019-01-09T10:36:59.000Z,19.6
2019-01-09T10:46:59.000Z,19.5
2019-01-09T10:56:59.000Z,19.7
2019-01-09T11:06:59.000Z,19.5
2019-01-09T11:16:59.000Z,19.8
2019-01-09T11:26:59.000Z,19.8
2019-01-09T11:37:00.000Z,19.8
2019-01-09T11:47:00.000Z,19.6
2019-01-09T11:57:00.000Z,19.9
2019-01-09T12:07:03.000Z,19.8
2019-01-09T12:17:00.000Z,19.8
2019-01-09T12:27:00.000Z,20
2019-01-09T12:37:00.000Z,19.9
2019-01-09T12:47:00.000Z,19.9
2019-01-09T12:57:00.000Z,19.9
2019-01-09T13:07:03.000Z,19.9
2019-01-09T13:17:00.000Z,20
2019-01-09T13:27:00.000Z,20.1
2019-01-09T13:37:00.000Z,20
2019-01-09T13:47:01.000Z,20.1
2019-01-09T13:57:00.000Z,20.1
2019-01-09T14:07:00.000Z,20
2019-01-09T14:17:00.000Z,20.1
2019-01-09T14:27:00.000Z,20.2
2019-01-09T14:37:00.000Z,20.1
2019-01-09T14:47:00.000Z,20.3
2019-01-09T14:57:00.000Z,20.1
2019-01-09T15:07:00.000Z,20.4
2019-01-09T15:17:00.000Z,20.3
2019-01-09T15:27:00.000Z,20.4
2019-01-09T15:37:00.000Z,20.4
2019-01-09T15:47:00.000Z,20.4
2019-01-09T15:57:00.000Z,20.4
2019-01-09T16:07:00.000Z,20.4
2019-01-09T16:17:02.000Z,20.4
2019-01-09T16:27:00.000Z,20.5
2019-01-09T16:37:01.000Z,20.3
2019-01-09T16:47:04.000Z,20.5
2019-01-09T16:57:00.000Z,20.4
2019-01-09T17:07:02.000Z,20.4
2019-01-09T17:27:00.000Z,20.5
2019-01-09T17:37:00.000Z,20.6
2019-01-09T17:47:00.000Z,20.6
2019-01-09T17:57:00.000Z,20.6
2019-01-09T18:07:00.000Z,20.3
2019-01-09T18:17:01.000Z,20.5
2019-01-09T18:27:00.000Z,20.5
2019-01-09T18:37:01.000Z,20.6
2019-01-09T18:47:03.000Z,20.6
2019-01-09T18:57:01.000Z,20.4
2019-01-09T19:07:01.000Z,20.6
2019-01-09T19:17:01.000Z,20.6
2019-01-09T19:27:01.000Z,20.4
2019-01-09T19:37:01.000Z,20.6
2019-01-09T19:47:01.000Z,20.6
2019-01-09T19:57:01.000Z,20.7
2019-01-09T20:07:01.000Z,20.4
2019-01-09T20:17:01.000Z,20.6
2019-01-09T20:27:01.000Z,20.6
2019-01-09T20:37:01.000Z,20.6
2019-01-09T20:47:01.000Z,20.5
2019-01-09T20:57:01.000Z,20.6
2019-01-09T21:07:01.000Z,20.6
2019-01-09T21:17:01.000Z,20.6
2019-01-09T21:27:01.000Z,20.3
2019-01-09T21:37:01.000Z,20.6
2019-01-09T21:47:01.000Z,20.6
2019-01-09T21:57:01.000Z,20
2019-01-09T22:07:01.000Z,18.1
2019-01-09T22:17:01.000Z,17.3
2019-01-09T22:27:01.000Z,16.8
2019-01-09T22:37:01.000Z,16.4
2019-01-09T22:47:01.000Z,16.4
2019-01-09T22:57:01.000Z,16.2
2019-01-09T23:07:05.000Z,16
2019-01-09T23:17:01.000Z,15.6
2019-01-09T23:27:01.000Z,15.6
2019-01-09T23:37:01.000Z,15.4
2019-01-09T23:47:01.000Z,15.4
2019-01-09T23:57:01.000Z,15.3
